createdAt,value
2022-08-04T00:02:04.959Z,58.25
2022-08-04T00:04:38.893Z,58.45
2022-08-04T00:07:12.790Z,58.48
2022-08-04T00:09:48.573Z,58.49
2022-08-04T00:12:18.605Z,58.80
2022-08-04T00:14:50.054Z,58.78
2022-08-04T00:17:22.857Z,58.65
2022-08-04T00:19:57.235Z,58.70
2022-08-04T00:22:29.535Z,58.71
2022-08-04T00:24:59.338Z,58.69
2022-08-04T00:27:30.224Z,58.58
2022-08-04T00:29:59.153Z,58.61
2022-08-04T00:32:34.042Z,58.56
2022-08-04T00:35:03.394Z,58.61
2022-08-04T00:37:32.494Z,58.57
2022-08-04T00:40:01.663Z,58.62
2022-08-04T00:42:58.273Z,58.54
2022-08-04T00:46:16.618Z,58.51
2022-08-04T00:49:20.716Z,58.51
2022-08-04T00:52:30.755Z,58.66
2022-08-04T00:55:08.505Z,58.41
2022-08-04T00:57:52.284Z,58.49
2022-08-04T01:00:21.440Z,58.87
2022-08-04T01:03:06.933Z,58.77
2022-08-04T01:05:49.846Z,58.78
2022-08-04T01:08:55.642Z,58.80
2022-08-04T01:11:57.008Z,58.80
2022-08-04T01:14:50.620Z,58.64
2022-08-04T01:17:25.675Z,58.84
2022-08-04T01:20:07.780Z,58.65
2022-08-04T01:23:18.254Z,58.77
2022-08-04T01:26:41.855Z,58.82
2022-08-04T01:29:09.863Z,59.02
2022-08-04T01:31:52.148Z,59.03
2022-08-04T01:34:23.322Z,59.54
2022-08-04T01:37:00.695Z,59.21
2022-08-04T01:39:43.089Z,59.16
2022-08-04T01:42:31.453Z,59.39
2022-08-04T01:45:03.778Z,59.38
2022-08-04T01:47:35.304Z,59.57
2022-08-04T01:50:07.962Z,59.55
2022-08-04T01:52:37.322Z,59.67
2022-08-04T01:55:10.164Z,59.61
2022-08-04T01:57:42.653Z,59.67
2022-08-04T02:00:15.153Z,59.53
2022-08-04T02:02:43.785Z,59.64
2022-08-04T02:05:12.690Z,59.55
2022-08-04T02:08:14.668Z,59.39
2022-08-04T02:10:56.149Z,59.31
2022-08-04T02:13:32.393Z,59.34
2022-08-04T02:16:05.188Z,59.28
2022-08-04T02:18:41.970Z,59.34
2022-08-04T02:21:10.819Z,59.32
2022-08-04T02:23:41.890Z,59.22
2022-08-04T02:26:22.288Z,59.02
2022-08-04T02:28:59.809Z,58.77
2022-08-04T02:31:33.652Z,58.84
2022-08-04T02:34:08.877Z,58.83
2022-08-04T02:36:39.819Z,58.99
2022-08-04T02:39:10.014Z,59.04
2022-08-04T02:41:41.151Z,58.96
2022-08-04T02:44:11.407Z,58.82
2022-08-04T02:46:43.232Z,58.64
2022-08-04T02:49:12.179Z,58.70
2022-08-04T02:51:43.579Z,58.59
2022-08-04T02:54:12.385Z,58.70
2022-08-04T02:56:42.040Z,58.71
2022-08-04T02:59:12.300Z,58.72
2022-08-04T03:01:57.523Z,58.67
2022-08-04T03:04:52.322Z,58.58
2022-08-04T03:07:52.463Z,58.76
2022-08-04T03:10:50.681Z,59.05
2022-08-04T03:13:38.574Z,59.28
2022-08-04T03:16:38.667Z,59.20
2022-08-04T03:19:52.223Z,59.12
2022-08-04T03:23:12.104Z,59.12
2022-08-04T03:26:07.202Z,59.10
2022-08-04T03:29:04.928Z,59.00
2022-08-04T03:31:57.798Z,59.02
2022-08-04T03:34:38.018Z,59.05
2022-08-04T03:37:40.193Z,59.13
2022-08-04T03:40:34.747Z,59.09
2022-08-04T03:43:58.916Z,58.96
2022-08-04T03:46:43.549Z,58.93
2022-08-04T03:50:04.472Z,58.73
2022-08-04T03:53:12.007Z,58.87
2022-08-04T03:56:15.886Z,58.87
2022-08-04T03:59:07.007Z,58.80
2022-08-04T04:02:07.238Z,58.75
2022-08-04T04:05:22.872Z,58.64
2022-08-04T04:08:38.846Z,58.70
2022-08-04T04:11:25.771Z,58.55
2022-08-04T04:14:20.671Z,58.45
2022-08-04T04:17:06.507Z,58.57
2022-08-04T04:20:00.460Z,58.56
2022-08-04T04:23:01.640Z,58.62
2022-08-04T04:25:41.046Z,58.54
2022-08-04T04:28:46.961Z,58.48
2022-08-04T04:31:48.191Z,58.38
2022-08-04T04:34:27.824Z,58.26
2022-08-04T04:37:13.469Z,58.31
2022-08-04T04:39:53.233Z,58.35
2022-08-04T04:42:51.123Z,58.09
2022-08-04T04:45:28.279Z,58.24
2022-08-04T04:48:09.672Z,58.29
2022-08-04T04:50:51.936Z,58.22
2022-08-04T04:53:29.042Z,58.15
2022-08-04T04:56:04.795Z,57.96
2022-08-04T04:58:36.340Z,57.96
2022-08-04T05:01:46.425Z,57.79
2022-08-04T05:04:37.859Z,57.62
2022-08-04T05:07:33.537Z,57.55
2022-08-04T05:10:11.451Z,57.55
2022-08-04T05:14:35.206Z,57.37
2022-08-04T05:15:46.201Z,57.29
2022-08-04T05:18:20.644Z,57.27
2022-08-04T05:25:03.861Z,57.06
2022-08-04T05:27:40.475Z,56.75
2022-08-04T05:31:35.505Z,56.87
2022-08-04T05:35:04.741Z,56.78
2022-08-04T05:37:37.107Z,56.49
2022-08-04T05:40:13.958Z,56.79
2022-08-04T05:42:46.460Z,56.61
2022-08-04T05:45:28.086Z,56.49
2022-08-04T05:48:09.850Z,56.27
2022-08-04T05:50:40.625Z,56.00
2022-08-04T05:53:11.437Z,56.13
2022-08-04T05:55:57.071Z,55.88
2022-08-04T05:58:30.606Z,55.82
2022-08-04T06:01:00.720Z,55.44
2022-08-04T06:03:30.759Z,55.04
2022-08-04T06:06:00.889Z,54.80
2022-08-04T06:08:31.396Z,54.81
2022-08-04T06:11:04.838Z,54.49
2022-08-04T06:13:48.019Z,54.44
2022-08-04T06:16:28.867Z,54.61
2022-08-04T06:19:59.591Z,54.59
2022-08-04T06:21:55.825Z,54.31
2022-08-04T06:24:27.365Z,54.17
2022-08-04T06:26:56.638Z,53.75
2022-08-04T06:29:32.080Z,53.65
2022-08-04T06:32:29.638Z,53.52
2022-08-04T06:35:04.063Z,53.47
2022-08-04T06:37:41.869Z,53.27
2022-08-04T06:40:31.867Z,53.33
2022-08-04T06:43:04.256Z,52.92
2022-08-04T06:45:34.705Z,52.82
2022-08-04T06:48:04.609Z,52.68
2022-08-04T06:51:25.745Z,52.10
2022-08-04T06:53:23.429Z,52.17
2022-08-04T06:55:52.979Z,51.03
2022-08-04T06:58:22.300Z,51.15
2022-08-04T07:00:51.831Z,50.69
2022-08-04T07:03:21.775Z,49.75
2022-08-04T07:05:52.377Z,50.35
2022-08-04T07:08:22.780Z,49.28
2022-08-04T07:10:53.286Z,48.67
2022-08-04T07:13:23.686Z,48.37
2022-08-04T07:15:52.399Z,47.59
2022-08-04T07:18:20.569Z,47.92
2022-08-04T07:20:49.717Z,47.22
2022-08-04T07:23:23.858Z,46.74
2022-08-04T07:26:11.783Z,46.92
2022-08-04T07:28:41.543Z,46.51
2022-08-04T07:31:34.491Z,45.82
2022-08-04T07:34:17.248Z,45.73
2022-08-04T07:36:52.980Z,44.05
2022-08-04T07:39:28.123Z,44.40
2022-08-04T07:42:01.407Z,43.87
2022-08-04T07:44:30.907Z,43.73
2022-08-04T07:46:59.870Z,42.77
2022-08-04T07:49:57.340Z,43.11
2022-08-04T07:52:17.685Z,42.39
2022-08-04T07:54:46.731Z,41.99
2022-08-04T07:57:19.713Z,41.70
2022-08-04T08:00:09.027Z,41.86
2022-08-04T08:02:40.279Z,41.12
2022-08-04T08:05:09.971Z,41.34
2022-08-04T08:07:38.290Z,41.63
2022-08-04T08:10:19.757Z,41.49
2022-08-04T08:12:51.539Z,41.32
2022-08-04T08:15:20.991Z,40.84
2022-08-04T08:17:59.812Z,40.59
2022-08-04T08:20:30.917Z,40.86
2022-08-04T08:22:59.893Z,39.78
2022-08-04T08:25:28.350Z,39.80
2022-08-04T08:27:57.827Z,39.73
2022-08-04T08:30:31.644Z,39.62
2022-08-04T08:33:05.437Z,39.59
2022-08-04T08:35:47.405Z,40.51
2022-08-04T08:38:34.413Z,40.29
2022-08-04T08:41:24.605Z,40.10
2022-08-04T08:44:19.203Z,39.27
2022-08-04T08:47:18.027Z,38.53
2022-08-04T08:50:16.432Z,39.25
2022-08-04T08:53:14.883Z,39.34
2022-08-04T08:55:54.814Z,38.27
2022-08-04T08:58:36.586Z,38.56
2022-08-04T09:01:19.996Z,37.47
2022-08-04T09:04:32.329Z,37.47
2022-08-04T09:07:14.934Z,37.61
2022-08-04T09:10:06.735Z,38.24
2022-08-04T09:12:41.524Z,37.53
2022-08-04T09:18:06.304Z,36.69
2022-08-04T09:20:41.943Z,36.72
2022-08-04T09:23:21.396Z,37.49
2022-08-04T09:25:59.180Z,37.25
2022-08-04T09:28:53.092Z,37.12
2022-08-04T09:31:24.386Z,37.48
2022-08-04T09:34:02.745Z,37.08
2022-08-04T09:36:36.186Z,37.45
2022-08-04T09:39:11.413Z,37.34
2022-08-04T09:41:52.931Z,37.02
2022-08-04T09:44:50.180Z,36.65
2022-08-04T09:47:26.077Z,36.79
2022-08-04T09:50:19.707Z,36.30
2022-08-04T09:52:57.453Z,36.14
2022-08-04T09:55:53.906Z,35.92
2022-08-04T09:58:30.056Z,34.53
2022-08-04T10:01:03.704Z,34.15
2022-08-04T10:03:34.578Z,34.52
2022-08-04T10:06:14.995Z,33.81
2022-08-04T10:09:02.175Z,33.31
2022-08-04T10:11:55.520Z,31.76
2022-08-04T10:14:39.326Z,31.64
2022-08-04T10:17:21.508Z,31.77
2022-08-04T10:19:57.631Z,32.26
2022-08-04T10:22:55.413Z,32.09
2022-08-04T10:25:37.592Z,31.60
2022-08-04T10:28:25.537Z,30.83
2022-08-04T10:31:11.182Z,30.31
2022-08-04T10:33:46.127Z,30.61
2022-08-04T10:36:20.362Z,29.35
2022-08-04T10:38:58.487Z,29.36
2022-08-04T10:41:34.305Z,29.42
2022-08-04T10:44:14.713Z,29.19
2022-08-04T10:46:48.143Z,30.19
2022-08-04T10:49:25.441Z,29.78
2022-08-04T10:52:03.016Z,29.32
2022-08-04T10:54:45.176Z,29.66
2022-08-04T10:57:16.825Z,29.20
2022-08-04T10:59:54.285Z,28.07
2022-08-04T11:02:39.100Z,29.29
2022-08-04T11:05:44.067Z,28.00
2022-08-04T11:08:36.808Z,29.00
2022-08-04T11:12:00.941Z,29.03
2022-08-04T11:14:48.038Z,28.16
2022-08-04T11:20:34.742Z,27.09
2022-08-04T11:23:20.243Z,25.97
2022-08-04T11:29:06.923Z,27.76
2022-08-04T11:32:18.638Z,26.78
2022-08-04T11:35:20.694Z,25.64
2022-08-04T11:38:19.525Z,25.20
2022-08-04T11:41:03.384Z,25.46
2022-08-04T11:44:00.646Z,26.78
2022-08-04T11:50:02.638Z,28.87
2022-08-04T11:55:29.613Z,28.46
2022-08-04T11:57:57.982Z,27.97
2022-08-04T12:00:59.731Z,27.10
2022-08-04T12:03:37.970Z,27.61
2022-08-04T12:06:18.783Z,27.18
2022-08-04T12:09:05.450Z,27.67
2022-08-04T12:11:53.395Z,27.93
2022-08-04T12:15:20.857Z,28.68
2022-08-04T12:17:57.708Z,28.78
2022-08-04T12:20:40.575Z,28.10
2022-08-04T12:23:17.452Z,28.60
2022-08-04T12:25:49.422Z,28.31
2022-08-04T12:28:26.632Z,28.52
2022-08-04T12:31:11.636Z,29.35
2022-08-04T12:34:04.335Z,29.71
2022-08-04T12:36:41.159Z,30.01
2022-08-04T12:39:19.802Z,29.89
2022-08-04T12:45:08.364Z,30.65
2022-08-04T12:47:40.500Z,31.92
2022-08-04T12:50:19.768Z,32.02
2022-08-04T12:53:08.487Z,32.93
2022-08-04T12:55:40.795Z,33.31
2022-08-04T12:58:16.408Z,33.23
2022-08-04T13:02:07.221Z,33.35
2022-08-04T13:04:03.611Z,33.60
2022-08-04T13:06:35.997Z,34.24
2022-08-04T13:09:09.419Z,34.33
2022-08-04T13:11:44.040Z,34.66
2022-08-04T13:15:09.687Z,35.24
2022-08-04T13:18:04.446Z,35.30
2022-08-04T13:20:41.669Z,35.96
2022-08-04T13:23:20.164Z,36.87
2022-08-04T13:26:42.779Z,37.55
2022-08-04T13:30:00.645Z,37.87
2022-08-04T13:32:29.242Z,38.75
2022-08-04T13:34:59.427Z,39.59
2022-08-04T13:37:38.920Z,40.39
2022-08-04T13:40:16.432Z,40.78
2022-08-04T13:42:48.566Z,41.12
2022-08-04T13:45:22.498Z,41.45
2022-08-04T13:47:52.483Z,42.02
2022-08-04T13:50:23.853Z,41.62
2022-08-04T13:53:01.314Z,42.17
2022-08-04T13:55:32.566Z,42.40
2022-08-04T13:58:06.308Z,42.47
2022-08-04T14:00:55.760Z,42.66
2022-08-04T14:03:28.155Z,43.65
2022-08-04T14:06:12.172Z,43.37
2022-08-04T14:08:48.814Z,42.91
2022-08-04T14:12:06.442Z,42.74
2022-08-04T14:14:24.081Z,43.30
2022-08-04T14:17:05.472Z,42.56
2022-08-04T14:19:51.711Z,42.62
2022-08-04T14:22:36.488Z,41.29
2022-08-04T14:25:15.402Z,40.38
2022-08-04T14:27:46.718Z,39.83
2022-08-04T14:30:26.520Z,39.19
2022-08-04T14:34:02.041Z,37.44
2022-08-04T14:36:03.791Z,35.48
2022-08-04T14:38:48.411Z,35.52
2022-08-04T14:41:30.173Z,34.63
2022-08-04T14:43:59.655Z,34.10
2022-08-04T14:46:36.890Z,34.96
2022-08-04T14:49:12.480Z,34.16
2022-08-04T14:51:43.788Z,33.92
2022-08-04T14:54:18.593Z,34.47
2022-08-04T14:57:06.655Z,32.80
2022-08-04T14:59:59.042Z,33.46
2022-08-04T15:02:30.450Z,33.35
2022-08-04T15:06:00.825Z,34.23
2022-08-04T15:07:49.290Z,32.69
2022-08-04T15:10:27.073Z,33.41
2022-08-04T15:12:55.699Z,32.95
2022-08-04T15:15:36.428Z,33.19
2022-08-04T15:18:05.959Z,34.03
2022-08-04T15:21:20.573Z,33.62
2022-08-04T15:24:15.974Z,33.98
2022-08-04T15:26:51.033Z,33.44
2022-08-04T15:29:27.741Z,34.25
2022-08-04T15:32:05.380Z,33.47
2022-08-04T15:34:46.684Z,32.72
2022-08-04T15:37:20.065Z,32.41
2022-08-04T15:39:54.006Z,31.83
2022-08-04T15:42:32.682Z,32.49
2022-08-04T15:45:12.758Z,31.45
2022-08-04T15:47:41.421Z,31.34
2022-08-04T15:50:28.266Z,31.99
2022-08-04T15:53:12.659Z,32.05
2022-08-04T15:55:43.966Z,32.30
2022-08-04T15:58:13.477Z,32.67
2022-08-04T16:01:14.786Z,33.09
2022-08-04T16:03:58.276Z,33.67
2022-08-04T16:06:45.379Z,34.68
2022-08-04T16:09:25.547Z,34.26
2022-08-04T16:12:54.544Z,33.99
2022-08-04T16:15:41.902Z,34.76
2022-08-04T16:18:25.614Z,34.78
2022-08-04T16:20:56.674Z,34.62
2022-08-04T16:24:00.602Z,34.28
2022-08-04T16:26:56.201Z,34.12
2022-08-04T16:29:36.551Z,34.74
2022-08-04T16:32:26.479Z,35.18
2022-08-04T16:35:00.438Z,35.39
2022-08-04T16:37:34.867Z,35.57
2022-08-04T16:40:29.747Z,36.34
2022-08-04T16:43:04.021Z,36.12
2022-08-04T16:45:53.927Z,36.02
2022-08-04T16:48:26.745Z,36.66
2022-08-04T16:51:04.867Z,37.12
2022-08-04T16:53:53.205Z,37.27
2022-08-04T16:56:33.425Z,37.95
2022-08-04T16:59:09.959Z,38.11
2022-08-04T17:01:38.648Z,38.40
2022-08-04T17:04:07.701Z,39.03
2022-08-04T17:06:38.431Z,39.10
2022-08-04T17:09:10.687Z,39.18
2022-08-04T17:11:40.132Z,39.37
2022-08-04T17:14:47.923Z,39.59
2022-08-04T17:17:16.703Z,40.13
2022-08-04T17:19:54.344Z,40.26
2022-08-04T17:22:37.711Z,40.42
2022-08-04T17:25:06.544Z,39.97
2022-08-04T17:28:08.572Z,40.23
2022-08-04T17:30:30.112Z,39.52
2022-08-04T17:32:59.467Z,39.49
2022-08-04T17:35:27.898Z,39.19
2022-08-04T17:38:07.446Z,39.23
2022-08-04T17:40:50.471Z,39.38
2022-08-04T17:44:03.548Z,39.56
2022-08-04T17:46:29.089Z,39.68
2022-08-04T17:49:07.287Z,40.23
2022-08-04T17:52:04.672Z,40.12
2022-08-04T17:54:37.430Z,40.30
2022-08-04T17:57:36.547Z,40.26
2022-08-04T18:00:08.992Z,40.95
2022-08-04T18:02:55.582Z,41.18
2022-08-04T18:05:50.263Z,41.42
2022-08-04T18:08:35.247Z,41.87
2022-08-04T18:11:05.476Z,41.86
2022-08-04T18:13:42.798Z,42.39
2022-08-04T18:16:22.317Z,42.49
2022-08-04T18:19:10.764Z,42.33
2022-08-04T18:27:15.334Z,43.10
2022-08-04T18:32:33.459Z,43.37
2022-08-04T18:38:05.427Z,42.45
2022-08-04T18:40:53.069Z,42.20
2022-08-04T18:43:40.671Z,42.35
2022-08-04T18:48:58.132Z,42.42
2022-08-04T18:51:30.710Z,42.46
2022-08-04T18:54:00.340Z,42.71
2022-08-04T18:56:31.878Z,42.77
2022-08-04T19:02:13.573Z,43.16
2022-08-04T19:04:40.206Z,43.12
2022-08-04T19:07:29.471Z,43.16
2022-08-04T19:09:59.902Z,43.26
2022-08-04T19:12:28.895Z,43.36
2022-08-04T19:15:08.106Z,43.61
2022-08-04T19:17:53.977Z,43.71
2022-08-04T19:20:27.271Z,43.78
2022-08-04T19:24:29.998Z,43.94
2022-08-04T19:26:02.200Z,44.14
2022-08-04T19:28:40.346Z,44.34
2022-08-04T19:31:10.524Z,44.50
2022-08-04T19:33:59.211Z,44.62
2022-08-04T19:36:31.111Z,44.41
2022-08-04T19:39:02.415Z,44.76
2022-08-04T19:41:32.165Z,44.81
2022-08-04T19:44:00.903Z,44.78
2022-08-04T19:46:29.202Z,44.92
2022-08-04T19:48:59.692Z,45.03
2022-08-04T19:51:30.218Z,45.27
2022-08-04T19:54:03.769Z,45.10
2022-08-04T19:56:40.189Z,45.28
2022-08-04T19:59:09.443Z,45.44
2022-08-04T20:01:44.903Z,45.54
2022-08-04T20:04:13.807Z,45.77
2022-08-04T20:06:42.488Z,45.81
2022-08-04T20:09:24.546Z,45.83
2022-08-04T20:11:54.638Z,45.84
2022-08-04T20:14:31.136Z,45.77
2022-08-04T20:17:03.107Z,46.02
2022-08-04T20:19:38.266Z,45.92
2022-08-04T20:22:50.869Z,46.06
2022-08-04T20:25:00.918Z,46.22
2022-08-04T20:27:59.812Z,46.24
2022-08-04T20:30:29.441Z,46.35
2022-08-04T20:32:57.472Z,46.53
2022-08-04T20:35:27.146Z,46.73
2022-08-04T20:38:00.282Z,46.89
2022-08-04T20:40:44.128Z,47.10
2022-08-04T20:43:21.426Z,47.16
2022-08-04T20:45:56.948Z,47.15
2022-08-04T20:48:53.099Z,47.10
2022-08-04T20:51:25.932Z,47.40
2022-08-04T20:54:16.709Z,47.70
2022-08-04T20:56:56.214Z,47.72
2022-08-04T20:59:29.375Z,47.71
2022-08-04T21:02:01.333Z,47.96
2022-08-04T21:04:37.643Z,48.00
2022-08-04T21:07:17.877Z,47.99
2022-08-04T21:09:51.241Z,48.24
2022-08-04T21:12:28.414Z,48.28
2022-08-04T21:15:14.207Z,48.35
2022-08-04T21:17:56.811Z,48.67
2022-08-04T21:20:30.064Z,48.75
2022-08-04T21:23:05.042Z,48.81
2022-08-04T21:25:42.625Z,48.93
2022-08-04T21:28:20.052Z,49.01
2022-08-04T21:30:54.378Z,49.15
2022-08-04T21:33:51.232Z,49.28
2022-08-04T21:36:20.636Z,49.24
2022-08-04T21:38:53.664Z,49.50
2022-08-04T21:44:15.538Z,49.21
2022-08-04T21:46:49.378Z,49.41
2022-08-04T21:49:23.019Z,49.21
2022-08-04T21:52:00.018Z,49.21
2022-08-04T21:54:31.261Z,49.39
2022-08-04T21:57:06.222Z,49.19
2022-08-04T21:59:45.062Z,49.18
2022-08-04T22:02:16.937Z,49.28
2022-08-04T22:04:55.527Z,49.24
2022-08-04T22:07:23.890Z,49.50
2022-08-04T22:10:11.712Z,49.56
2022-08-04T22:12:43.558Z,49.56
2022-08-04T22:15:23.042Z,49.53
2022-08-04T22:18:12.781Z,49.44
2022-08-04T22:20:41.401Z,49.66
2022-08-04T22:23:16.944Z,49.80
2022-08-04T22:25:53.534Z,49.82
2022-08-04T22:28:28.305Z,49.98
2022-08-04T22:30:59.679Z,50.05
2022-08-04T22:33:54.337Z,50.06
2022-08-04T22:36:25.414Z,50.30
2022-08-04T22:39:06.829Z,50.25
2022-08-04T22:42:03.068Z,50.21
2022-08-04T22:44:34.214Z,50.36
2022-08-04T22:47:09.876Z,50.20
2022-08-04T22:50:13.506Z,50.37
2022-08-04T22:52:55.868Z,50.34
2022-08-04T22:55:25.402Z,50.35
2022-08-04T22:58:16.868Z,50.33
2022-08-04T23:00:52.941Z,50.47
2022-08-04T23:03:37.389Z,50.47
2022-08-04T23:06:08.387Z,50.39
2022-08-04T23:08:43.276Z,50.55
2022-08-04T23:11:17.143Z,50.74
2022-08-04T23:13:47.209Z,50.84
2022-08-04T23:16:19.748Z,51.05
2022-08-04T23:18:49.785Z,51.01
2022-08-04T23:21:24.219Z,50.92
2022-08-04T23:24:00.806Z,51.11
2022-08-04T23:30:21.874Z,51.24
2022-08-04T23:32:53.495Z,51.41
2022-08-04T23:35:23.389Z,51.48
2022-08-04T23:37:56.624Z,51.93
2022-08-04T23:40:33.474Z,52.02
2022-08-04T23:43:12.174Z,51.95
2022-08-04T23:46:07.176Z,52.17
2022-08-04T23:48:34.475Z,52.65
2022-08-04T23:51:14.528Z,52.66
2022-08-04T23:54:02.319Z,52.91
2022-08-04T23:56:32.558Z,53.01
2022-08-04T23:59:03.978Z,53.01
